Time;durP1;ratioP1;P1;durP2;ratioP2;P2;SDS_P1;SDS_P2;PMS_P1;PMS_P2;Temp;Humidity;BMP_temperature;BMP_pressure;BME280_temperature;BME280_humidity;BME280_pressure;Samples;Min_cycle;Max_cycle;Signal;HPM_P1;HPM_P2
2022/11/11 00:02:02;;;;;;;0.98;0.98;;;;;;;11.28;66.08;101378.66;4371973;32;33181;-88
2022/11/11 00:04:48;;;;;;;5.97;1.62;;;;;;;11.34;65.67;101375.87;4360402;32;35129;-88
2022/11/11 00:07:34;;;;;;;1.25;1.15;;;;;;;11.11;66.49;101380.78;4370955;32;34389;-88
2022/11/11 00:10:21;;;;;;;0.60;0.60;;;;;;;11.66;64.71;101376.94;4371240;32;33330;-88
2022/11/11 00:13:08;;;;;;;2.15;2.05;;;;;;;11.56;64.62;101386.88;4371282;32;33946;-87
2022/11/11 00:15:55;;;;;;;1.35;1.27;;;;;;;11.63;64.26;101392.87;4361200;32;34763;-87
2022/11/11 00:25:04;;;;;;;1.12;1.12;;;;;;;11.64;63.65;101398.16;4360127;32;33893;-87
2022/11/11 00:27:52;;;;;;;2.50;2.30;;;;;;;11.73;63.55;101405.00;4358507;32;33860;-87
2022/11/11 00:30:38;;;;;;;2.87;2.62;;;;;;;11.33;64.60;101405.88;4374059;32;33383;-87
2022/11/11 00:33:26;;;;;;;1.10;1.10;;;;;;;11.46;64.49;101399.44;4370669;32;33201;-87
2022/11/11 00:36:13;;;;;;;2.00;1.85;;;;;;;11.32;65.01;101393.56;4360329;32;32208;-87
2022/11/11 00:39:01;;;;;;;5.07;2.75;;;;;;;11.37;64.62;101391.69;4359846;32;33485;-86
2022/11/11 00:41:48;;;;;;;3.78;1.20;;;;;;;11.25;65.22;101403.41;4370942;32;32496;-85
2022/11/11 00:44:34;;;;;;;2.35;2.22;;;;;;;11.14;65.45;101392.16;4372398;32;33447;-85
2022/11/11 00:53:35;;;;;;;1.35;1.25;;;;;;;11.39;64.76;101400.44;4371093;32;33572;-86
2022/11/11 00:56:22;;;;;;;3.72;1.87;;;;;;;11.60;63.91;101399.13;4372301;32;33454;-87
2022/11/11 00:59:10;;;;;;;3.83;2.53;;;;;;;11.45;64.71;101397.69;4361237;32;33104;-91
2022/11/11 01:02:16;;;;;;;1.08;1.05;;;;;;;11.51;64.66;101402.84;4376053;32;34151;-90
2022/11/11 01:05:10;;;;;;;2.53;2.35;;;;;;;11.53;64.65;101401.00;4353978;32;33434;-89
2022/11/11 01:07:57;;;;;;;2.37;2.17;;;;;;;11.56;64.41;101393.94;4357821;32;32676;-90
2022/11/11 01:10:53;;;;;;;0.77;0.77;;;;;;;11.64;64.37;101392.84;4378531;32;32646;-90
2022/11/11 01:13:35;;;;;;;2.53;2.33;;;;;;;11.88;63.50;101396.75;4350475;32;33031;-92
2022/11/11 01:16:34;;;;;;;17.52;3.00;;;;;;;11.65;64.08;101388.44;4336944;33;32170;-91
2022/11/11 01:19:22;;;;;;;1.98;1.87;;;;;;;11.49;64.41;101391.44;4328254;33;34416;-93
2022/11/11 01:22:04;;;;;;;1.45;1.37;;;;;;;11.52;64.46;101395.78;4383792;32;33631;-85
2022/11/11 01:24:52;;;;;;;4.80;2.22;;;;;;;11.18;65.33;101387.69;4381622;32;33449;-85
2022/11/11 01:27:38;;;;;;;1.73;1.62;;;;;;;11.22;65.15;101390.25;4382640;32;33146;-86
2022/11/11 01:30:28;;;;;;;2.20;2.08;;;;;;;11.17;65.31;101392.13;4379332;32;33446;-85
2022/11/11 01:33:14;;;;;;;2.40;2.30;;;;;;;11.28;64.96;101394.53;4383156;32;34221;-85
2022/11/11 01:36:10;;;;;;;5.22;2.05;;;;;;;10.74;66.72;101394.75;4377049;32;33458;-85
2022/11/11 01:38:59;;;;;;;5.82;2.28;;;;;;;10.88;66.36;101392.72;4368775;32;34557;-85
2022/11/11 01:41:47;;;;;;;1.95;1.83;;;;;;;10.92;66.53;101404.97;4380471;32;33080;-86
2022/11/11 01:44:45;;;;;;;1.95;1.85;;;;;;;11.02;65.94;101389.78;4380825;32;34786;-85
2022/11/11 01:49:17;;;;;;;0.85;0.85;;;;;;;10.78;66.63;101401.72;4369890;32;33600;-85
2022/11/11 01:51:01;;;;;;;3.37;2.83;;;;;;;10.91;65.92;101391.75;4378756;32;33419;-85
2022/11/11 01:53:52;;;;;;;1.95;1.37;;;;;;;11.23;64.92;101393.75;4368399;32;33040;-86
2022/11/11 01:56:26;;;;;;;2.10;1.50;;;;;;;11.33;64.63;101397.94;4384053;32;34030;-86
2022/11/11 01:59:16;;;;;;;3.00;2.75;;;;;;;11.27;64.60;101398.09;4380812;32;33295;-86
2022/11/11 02:02:10;;;;;;;2.10;2.00;;;;;;;11.13;64.75;101381.63;4379402;32;33177;-86
2022/11/11 02:08:06;;;;;;;1.75;1.65;;;;;;;10.88;65.56;101391.84;4361437;32;33825;-85
2022/11/11 02:10:52;;;;;;;1.60;1.50;;;;;;;10.99;65.59;101390.72;4368217;32;34476;-85
2022/11/11 02:16:48;;;;;;;2.53;2.28;;;;;;;11.19;64.99;101397.34;4380472;32;33840;-85
2022/11/11 02:19:45;;;;;;;3.20;2.90;;;;;;;11.19;64.63;101392.06;4380521;32;33160;-84
2022/11/11 02:23:12;;;;;;;1.77;1.62;;;;;;;11.33;64.56;101395.28;4361078;32;32448;-85
2022/11/11 02:26:00;;;;;;;2.00;1.77;;;;;;;11.28;65.13;101394.53;4342537;33;33959;-86
2022/11/11 02:28:48;;;;;;;0.70;0.70;;;;;;;11.03;66.28;101396.81;4349013;32;35058;-86
2022/11/11 02:31:35;;;;;;;1.00;1.00;;;;;;;11.07;65.85;101406.44;4347038;32;32946;-85
2022/11/11 02:34:31;;;;;;;2.58;2.05;;;;;;;11.06;65.44;101403.78;4382818;32;33324;-85
2022/11/11 02:37:21;;;;;;;1.87;1.77;;;;;;;11.09;64.73;101407.25;4368400;32;33942;-86
2022/11/11 02:40:10;;;;;;;1.87;1.77;;;;;;;10.83;65.40;101396.34;4382507;32;33862;-85
2022/11/11 02:42:57;;;;;;;1.87;1.77;;;;;;;10.86;64.70;101410.34;4363267;32;34035;-86
2022/11/11 02:45:43;;;;;;;10.55;3.30;;;;;;;10.74;65.05;101413.25;4381045;32;32400;-85
2022/11/11 02:48:32;;;;;;;1.75;1.65;;;;;;;10.76;65.29;101414.06;4380401;32;33049;-87
2022/11/11 02:51:19;;;;;;;1.77;1.67;;;;;;;10.76;65.06;101414.06;4382710;32;31533;-87
2022/11/11 02:54:06;;;;;;;2.03;1.55;;;;;;;10.65;65.13;101418.69;4379187;32;33871;-87
2022/11/11 02:57:08;;;;;;;1.98;1.48;;;;;;;10.57;65.18;101424.09;4380560;32;35088;-87
2022/11/11 02:59:59;;;;;;;3.47;3.17;;;;;;;10.41;65.96;101428.78;4372349;32;34593;-87
2022/11/11 03:06:59;;;;;;;2.33;1.73;;;;;;;10.23;67.29;101431.69;4335846;33;34282;-87
2022/11/11 03:09:50;;;;;;;1.33;1.23;;;;;;;10.47;66.35;101433.94;4367849;32;33854;-86
2022/11/11 03:12:37;;;;;;;1.40;1.30;;;;;;;10.50;66.08;101441.84;4380256;32;33601;-86
2022/11/11 03:15:23;;;;;;;2.05;1.70;;;;;;;10.36;65.71;101445.59;4382336;32;32191;-86
2022/11/11 03:18:09;;;;;;;2.15;2.05;;;;;;;10.15;67.35;101452.91;4378730;32;33912;-86
2022/11/11 03:21:05;;;;;;;1.92;1.83;;;;;;;10.13;67.06;101452.09;4380113;32;33516;-86
2022/11/11 03:24:12;;;;;;;2.53;2.30;;;;;;;10.13;67.50;101452.09;4370617;32;32829;-86
2022/11/11 03:26:59;;;;;;;3.20;2.97;;;;;;;10.29;66.65;101459.78;4374149;32;33689;-85
2022/11/11 03:29:46;;;;;;;3.30;2.10;;;;;;;10.47;66.01;101451.56;4379946;32;34020;-85
2022/11/11 03:32:32;;;;;;;2.03;1.90;;;;;;;10.22;66.54;101457.22;4378735;32;33736;-86
2022/11/11 03:35:19;;;;;;;1.60;1.23;;;;;;;10.12;66.56;101465.31;4378066;32;33678;-87
2022/11/11 03:38:23;;;;;;;1.27;1.10;;;;;;;10.18;66.70;101457.28;4379778;32;31972;-87
2022/11/11 03:41:10;;;;;;;1.33;1.20;;;;;;;10.36;66.01;101472.00;4371167;32;32641;-85
2022/11/11 03:43:56;;;;;;;4.20;3.25;;;;;;;10.36;65.95;101474.66;4367745;32;34800;-86
2022/11/11 03:46:42;;;;;;;5.72;2.87;;;;;;;10.31;65.81;101480.00;4377730;32;33933;-85
2022/11/11 03:49:29;;;;;;;1.15;0.98;;;;;;;10.24;65.33;101479.22;4379161;32;33204;-85
2022/11/11 03:52:15;;;;;;;2.05;1.95;;;;;;;10.08;65.66;101476.81;4379854;32;33184;-86
2022/11/11 03:55:01;;;;;;;1.45;1.35;;;;;;;9.92;66.18;101481.41;4379768;32;33013;-85
2022/11/11 03:57:48;;;;;;;1.85;1.70;;;;;;;9.98;65.87;101481.34;4373388;32;32959;-84
2022/11/11 04:00:36;;;;;;;1.75;1.33;;;;;;;9.96;66.26;101477.84;4371605;32;33392;-85
2022/11/11 04:16:07;;;;;;;0.73;0.73;;;;;;;10.00;65.65;101479.56;4379787;32;32780;-92
2022/11/11 04:22:09;;;;;;;2.35;0.98;;;;;;;9.88;65.69;101493.81;4350188;32;32363;-91
2022/11/11 04:31:07;;;;;;;1.77;1.67;;;;;;;9.71;65.68;101493.16;4351253;32;33122;-90
2022/11/11 04:33:55;;;;;;;0.82;0.82;;;;;;;9.64;65.49;101502.06;4342102;32;32242;-91
2022/11/11 04:37:02;;;;;;;1.55;1.48;;;;;;;9.73;65.21;101500.16;4343856;32;32681;-90
2022/11/11 04:42:54;;;;;;;3.85;2.50;;;;;;;9.63;65.29;101505.56;4350819;32;33426;-90
2022/11/11 04:45:37;;;;;;;1.83;1.70;;;;;;;9.58;65.16;101513.53;4348766;32;34117;-92
2022/11/11 04:48:36;;;;;;;7.22;2.80;;;;;;;9.62;64.90;101514.38;4382249;32;32151;-92
2022/11/11 04:56:46;;;;;;;1.27;1.27;;;;;;;9.38;65.29;101521.66;4355505;32;33925;-85
2022/11/11 04:57:48;;;;;;;0.98;0.93;;;;;;;9.27;66.08;101512.16;4347504;32;33134;-85
2022/11/11 05:00:35;;;;;;;1.52;1.42;;;;;;;9.47;66.89;101516.28;4328547;32;32920;-85
2022/11/11 05:03:25;;;;;;;1.37;0.85;;;;;;;9.61;67.55;101520.53;4332798;32;34040;-85
2022/11/11 05:09:20;;;;;;;1.58;1.05;;;;;;;9.67;68.45;101520.44;4343009;32;33293;-85
2022/11/11 05:12:10;;;;;;;1.80;1.70;;;;;;;9.74;68.36;101514.22;4332202;32;33847;-85
2022/11/11 05:27:09;;;;;;;1.62;1.52;;;;;;;9.63;69.10;101522.25;4342081;32;33500;-86
2022/11/11 05:29:56;;;;;;;3.12;2.37;;;;;;;9.71;69.34;101519.53;4327335;33;34047;-86
2022/11/11 05:32:43;;;;;;;1.85;1.75;;;;;;;9.91;69.25;101520.12;4330742;32;33173;-87
2022/11/11 05:35:30;;;;;;;3.22;1.40;;;;;;;9.74;70.24;101530.91;4341162;32;33012;-88
2022/11/11 05:38:21;;;;;;;4.07;2.90;;;;;;;9.83;70.12;101531.72;4329653;32;32876;-87
2022/11/11 05:41:08;;;;;;;2.95;2.62;;;;;;;10.03;69.40;101529.66;4345163;32;34138;-87
2022/11/11 05:44:02;;;;;;;;;;;;;;;9.99;69.25;101528.81;4340790;32;34689;-87
2022/11/11 05:46:50;;;;;;;4.50;1.85;;;;;;;9.99;69.31;101526.19;4334645;32;33970;-87
2022/11/11 05:49:37;;;;;;;2.85;1.62;;;;;;;9.94;69.41;101535.94;4329508;32;32822;-85
2022/11/11 05:52:28;;;;;;;0.82;0.82;;;;;;;10.04;69.21;101528.75;4342251;32;33096;-86
2022/11/11 05:55:14;;;;;;;0.93;0.93;;;;;;;10.07;69.16;101533.12;4329414;32;32835;-86
2022/11/11 05:58:02;;;;;;;1.87;0.98;;;;;;;10.11;68.89;101541.00;4332559;33;32776;-86
2022/11/11 06:00:53;;;;;;;4.07;1.83;;;;;;;10.18;68.68;101533.84;4338989;32;33198;-86
2022/11/11 06:03:39;;;;;;;3.05;1.58;;;;;;;10.05;68.73;101541.06;4341648;32;33780;-86
2022/11/11 06:06:26;;;;;;;1.98;1.87;;;;;;;10.08;68.55;101548.06;4353099;32;32891;-88
2022/11/11 06:09:13;;;;;;;2.85;1.95;;;;;;;10.05;68.82;101540.19;4340457;32;33185;-85
2022/11/11 06:12:00;;;;;;;2.78;2.58;;;;;;;10.13;68.55;101544.47;4331383;32;34811;-85
2022/11/11 06:14:46;;;;;;;2.42;2.08;;;;;;;10.11;68.97;101550.66;4342039;32;33455;-87
2022/11/11 06:17:22;;;;;;;2.35;1.60;;;;;;;10.25;68.43;101549.63;4340280;33;33672;-86
2022/11/11 06:20:11;;;;;;;1.40;1.30;;;;;;;10.14;68.37;101558.53;4340976;32;33200;-86
2022/11/11 06:22:57;;;;;;;1.40;1.30;;;;;;;10.01;68.89;101558.69;4347296;32;33916;-86
2022/11/11 06:28:56;;;;;;;3.30;3.10;;;;;;;10.13;68.95;101562.94;4339236;32;33200;-86
2022/11/11 06:31:44;;;;;;;2.67;2.55;;;;;;;10.21;68.96;101565.50;4343982;32;33892;-86
2022/11/11 06:34:31;;;;;;;5.57;3.47;;;;;;;10.26;68.91;101568.97;4343137;32;33427;-86
2022/11/11 06:37:18;;;;;;;6.22;2.95;;;;;;;10.37;68.76;101580.25;4343187;32;34201;-88
2022/11/11 06:40:05;;;;;;;1.95;1.85;;;;;;;10.47;68.54;101570.41;4330531;32;32590;-87
2022/11/11 06:42:59;;;;;;;3.17;2.92;;;;;;;10.51;68.56;101572.97;4325810;32;32231;-88
2022/11/11 06:45:51;;;;;;;1.30;1.20;;;;;;;10.47;68.62;101571.28;4332586;32;34133;-88
2022/11/11 06:48:41;;;;;;;2.58;2.15;;;;;;;10.70;68.20;101576.22;4336757;33;32994;-88
2022/11/11 06:51:29;;;;;;;1.27;1.23;;;;;;;10.55;68.80;101573.81;4331095;32;33234;-88
2022/11/11 06:54:16;;;;;;;1.50;1.27;;;;;;;10.64;68.53;101570.16;4350527;32;34062;-88
2022/11/11 06:57:07;;;;;;;1.50;1.40;;;;;;;10.71;68.90;101571.81;4333210;32;33227;-90
2022/11/11 06:59:55;;;;;;;3.28;2.20;;;;;;;10.72;68.95;101577.03;4335311;32;34409;-89
2022/11/11 07:02:43;;;;;;;3.75;2.33;;;;;;;10.90;68.76;101580.31;4325967;32;32659;-89
2022/11/11 07:05:27;;;;;;;0.88;0.88;;;;;;;11.00;68.76;101589.81;4339077;32;34398;-89
2022/11/11 07:08:12;;;;;;;1.75;1.65;;;;;;;11.00;69.20;101603.03;4348711;32;32889;-94
2022/11/11 07:10:55;;;;;;;3.00;1.98;;;;;;;11.05;69.15;101605.59;4333116;33;34091;-94
2022/11/11 07:13:38;;;;;;;1.12;1.08;;;;;;;11.11;69.13;101616.97;4358417;32;32769;-94
2022/11/11 07:16:29;;;;;;;3.53;1.70;;;;;;;11.56;68.01;101618.81;4359244;32;32634;-94
2022/11/11 07:19:12;;;;;;;1.20;1.20;;;;;;;11.32;68.80;101618.34;4378053;32;34389;-94
2022/11/11 07:22:01;;;;;;;2.10;2.00;;;;;;;11.09;69.87;101620.50;4338217;33;35548;-92
2022/11/11 07:24:50;;;;;;;2.40;1.55;;;;;;;11.24;69.44;101620.25;4392326;32;33298;-93
2022/11/11 07:27:38;;;;;;;0.85;0.85;;;;;;;11.53;69.00;101625.00;4369417;32;32305;-92
2022/11/11 07:30:37;;;;;;;1.27;1.17;;;;;;;11.38;69.29;101642.03;4338772;33;32159;-92
2022/11/11 07:33:24;;;;;;;1.25;0.80;;;;;;;11.62;68.58;101637.19;4354832;32;32449;-93
2022/11/11 07:36:08;;;;;;;1.73;1.62;;;;;;;11.75;68.21;101638.72;4350424;32;32200;-93
2022/11/11 07:38:56;;;;;;;1.90;1.77;;;;;;;11.77;67.91;101642.19;4378017;32;33266;-93
2022/11/11 07:41:49;;;;;;;1.83;1.73;;;;;;;11.57;67.70;101647.00;4391151;32;34295;-87
2022/11/11 07:44:35;;;;;;;1.35;1.33;;;;;;;11.72;67.51;101641.41;4383998;32;33781;-87
2022/11/11 07:47:25;;;;;;;1.85;1.70;;;;;;;11.70;67.32;101661.75;4392565;32;33927;-87
2022/11/11 07:50:12;;;;;;;1.95;1.65;;;;;;;11.78;67.26;101662.50;4371957;32;32152;-87
2022/11/11 07:52:58;;;;;;;1.50;1.40;;;;;;;12.24;66.23;101661.59;4377222;32;34638;-87
2022/11/11 07:56:03;;;;;;;5.97;1.58;;;;;;;12.19;66.44;101663.47;4370016;32;34270;-87
2022/11/11 07:58:50;;;;;;;2.35;2.15;;;;;;;12.16;66.37;101664.41;4380803;32;34435;-87
2022/11/11 08:01:36;;;;;;;2.03;1.92;;;;;;;12.40;65.98;101662.16;4389100;32;32799;-87
2022/11/11 08:04:24;;;;;;;3.45;1.65;;;;;;;12.48;65.18;101658.41;4380989;32;32970;-87
2022/11/11 08:07:10;;;;;;;2.28;2.08;;;;;;;12.57;65.09;101650.25;4363770;32;32916;-87
2022/11/11 08:09:57;;;;;;;1.55;1.00;;;;;;;12.78;64.09;101642.75;4374408;32;32599;-87
2022/11/11 08:15:56;;;;;;;1.90;1.50;;;;;;;13.12;63.22;101655.19;4388998;32;34215;-87
2022/11/11 08:18:43;;;;;;;3.70;1.42;;;;;;;13.28;63.13;101660.09;4390936;32;34272;-87
2022/11/11 08:21:34;;;;;;;2.17;1.70;;;;;;;13.44;62.73;101654.41;4370330;32;34026;-87
2022/11/11 08:24:21;;;;;;;1.98;1.87;;;;;;;13.84;61.86;101654.19;4388989;32;34184;-87
2022/11/11 08:27:30;;;;;;;2.50;1.77;;;;;;;14.12;60.46;101642.78;4399571;32;33622;-87
2022/11/11 08:30:17;;;;;;;5.12;1.77;;;;;;;14.15;60.85;101648.91;4393382;32;33195;-87
2022/11/11 08:33:04;;;;;;;3.00;2.08;;;;;;;14.07;61.29;101646.44;4365999;32;33660;-87
2022/11/11 08:36:11;;;;;;;3.37;1.35;;;;;;;14.36;60.08;101652.69;4372274;32;33848;-86
2022/11/11 08:39:06;;;;;;;3.25;2.50;;;;;;;14.22;60.50;101670.84;4373178;32;34039;-87
2022/11/11 08:41:55;;;;;;;4.35;1.17;;;;;;;14.43;59.52;101664.91;4378212;32;33491;-87
2022/11/11 08:44:42;;;;;;;1.33;1.23;;;;;;;14.43;59.51;101659.59;4383646;32;34579;-87
2022/11/11 08:47:31;;;;;;;2.40;1.55;;;;;;;14.45;60.16;101657.75;4376528;32;33421;-87
2022/11/11 08:50:19;;;;;;;2.42;2.33;;;;;;;14.54;59.62;101652.19;4373592;32;32714;-87
2022/11/11 08:53:07;;;;;;;1.67;1.25;;;;;;;14.57;59.25;101652.09;4380601;32;34056;-87
2022/11/11 08:55:53;;;;;;;7.10;2.35;;;;;;;14.78;58.99;101655.00;4371859;32;32883;-87
2022/11/11 08:58:40;;;;;;;2.33;1.85;;;;;;;14.48;59.77;101657.69;4369854;32;33163;-87
2022/11/11 09:01:27;;;;;;;1.95;1.83;;;;;;;14.74;58.89;101653.34;4374269;32;33509;-87
2022/11/11 09:04:15;;;;;;;8.13;2.08;;;;;;;14.96;58.07;101654.41;4398888;32;32759;-90
2022/11/11 09:06:59;;;;;;;1.10;0.93;;;;;;;15.03;57.58;101653.28;4365515;32;34078;-90
2022/11/11 09:10:02;;;;;;;1.33;1.23;;;;;;;14.65;58.56;101661.59;4335558;33;31762;-92
2022/11/11 09:12:46;;;;;;;1.73;1.62;;;;;;;14.90;57.84;101669.69;4372728;32;33885;-90
2022/11/11 09:15:58;;;;;;;11.07;2.90;;;;;;;14.85;58.31;101667.16;4358289;32;32761;-90
2022/11/11 09:19:04;;;;;;;1.30;0.93;;;;;;;15.01;58.08;101663.09;4359242;32;33247;-90
2022/11/11 09:22:06;;;;;;;2.42;1.52;;;;;;;15.44;56.20;101666.12;4333250;32;32267;-90
2022/11/11 09:24:49;;;;;;;;;;;;;;;14.85;58.40;101672.47;4345626;32;33000;-90
2022/11/11 09:27:56;;;;;;;1.92;1.55;;;;;;;15.35;56.53;101662.84;4325585;33;32475;-90
2022/11/11 09:31:03;;;;;;;1.95;1.85;;;;;;;15.33;56.94;101666.47;4354432;32;33640;-90
2022/11/11 09:34:11;;;;;;;1.65;1.55;;;;;;;15.59;56.19;101663.81;4352017;32;32594;-90
2022/11/11 09:37:14;;;;;;;1.67;1.15;;;;;;;15.51;56.28;101667.66;4355438;32;33574;-91
2022/11/11 09:39:57;;;;;;;1.27;1.17;;;;;;;15.50;56.22;101665.91;4373680;32;32973;-91
2022/11/11 09:43:09;;;;;;;1.20;1.05;;;;;;;15.14;57.53;101662.69;4382789;32;32215;-90
2022/11/11 09:45:58;;;;;;;2.28;2.12;;;;;;;15.06;57.69;101653.19;4363700;32;33998;-90
2022/11/11 09:49:25;;;;;;;1.73;1.62;;;;;;;15.38;56.28;101651.22;4380152;32;33149;-90
2022/11/11 09:52:38;;;;;;;0.70;0.62;;;;;;;15.07;57.34;101654.91;4348115;33;32574;-93
2022/11/11 09:55:38;;;;;;;2.53;2.27;;;;;;;15.03;57.79;101650.63;4336047;33;33405;-93
2022/11/11 09:58:44;;;;;;;4.80;3.10;;;;;;;14.98;58.28;101647.25;4351095;32;32723;-94
2022/11/11 10:01:47;;;;;;;1.65;1.52;;;;;;;15.59;56.71;101650.50;4318762;33;32222;-93
2022/11/11 10:04:38;;;;;;;3.72;2.22;;;;;;;16.13;54.74;101651.22;4378094;32;33076;-93
2022/11/11 10:07:35;;;;;;;2.47;2.25;;;;;;;16.21;54.46;101637.63;4376388;32;32818;-94
2022/11/11 10:10:43;;;;;;;2.90;1.95;;;;;;;16.17;55.16;101636.87;4353219;32;32276;-87
2022/11/11 10:13:36;;;;;;;1.20;1.10;;;;;;;16.30;55.16;101642.63;4345174;33;33213;-87
2022/11/11 10:16:43;;;;;;;1.15;1.12;;;;;;;16.74;54.26;101640.03;4354589;32;33020;-87
2022/11/11 10:19:38;;;;;;;1.37;1.30;;;;;;;16.78;53.91;101633.66;4356062;32;32424;-87
2022/11/11 10:22:30;;;;;;;2.00;1.85;;;;;;;16.73;53.72;101624.97;4344436;33;34167;-87
2022/11/11 10:25:26;;;;;;;1.55;1.45;;;;;;;16.56;53.78;101629.13;4346601;33;33417;-89
2022/11/11 10:28:18;;;;;;;1.52;1.42;;;;;;;16.26;54.46;101625.00;4355866;32;33091;-88
2022/11/11 10:31:13;;;;;;;3.40;2.28;;;;;;;16.86;53.11;101615.53;4342967;33;33906;-88
2022/11/11 10:34:10;;;;;;;3.00;0.82;;;;;;;16.61;53.98;101621.81;4355510;32;31870;-88
2022/11/11 10:37:16;;;;;;;1.45;1.35;;;;;;;16.36;53.65;101615.72;4355128;32;35613;-89
2022/11/11 10:40:09;;;;;;;2.67;1.80;;;;;;;16.37;53.48;101610.31;4348131;32;33099;-89
2022/11/11 10:42:59;;;;;;;1.77;1.67;;;;;;;16.72;52.43;101607.22;4357820;32;33752;-88
2022/11/11 10:46:01;;;;;;;1.17;1.05;;;;;;;17.08;52.16;101605.69;4340371;33;33148;-89
2022/11/11 10:48:57;;;;;;;2.15;2.00;;;;;;;16.88;52.21;101608.31;4331280;33;32962;-87
2022/11/11 10:51:50;;;;;;;1.40;1.30;;;;;;;16.99;51.84;101615.88;4316730;33;34244;-88
2022/11/11 10:54:44;;;;;;;;;;;;;;;17.48;50.42;101620.03;4316746;33;33490;-88
2022/11/11 10:57:44;;;;;;;1.67;1.58;;;;;;;17.37;50.98;101632.94;4328316;33;32100;-88
2022/11/11 11:00:33;;;;;;;4.12;2.78;;;;;;;16.61;52.99;101627.13;4340803;33;34373;-88
2022/11/11 11:03:29;;;;;;;2.95;1.48;;;;;;;16.67;53.56;101620.72;4342960;33;33389;-88
2022/11/11 11:06:24;;;;;;;14.55;1.98;;;;;;;16.78;52.66;101625.66;4345443;33;32531;-88
2022/11/11 11:09:29;;;;;;;4.12;1.73;;;;;;;16.81;53.54;101622.88;4351146;32;32467;-88
2022/11/11 11:12:53;;;;;;;2.92;1.67;;;;;;;16.91;53.50;101613.56;4358078;32;34190;-88
2022/11/11 11:15:56;;;;;;;3.60;1.70;;;;;;;16.44;56.02;101610.09;4347813;33;33822;-89
2022/11/11 11:19:23;;;;;;;4.62;1.83;;;;;;;16.47;53.97;101592.16;4371988;32;33452;-88
2022/11/11 11:22:06;;;;;;;1.15;1.15;;;;;;;16.31;54.36;101589.22;4349853;32;32441;-92
2022/11/11 11:24:48;;;;;;;2.47;2.28;;;;;;;16.71;54.42;101590.31;4363757;32;33662;-91
2022/11/11 11:27:30;;;;;;;3.03;1.33;;;;;;;16.19;54.63;101591.50;4336759;33;33550;-92
2022/11/11 11:30:22;;;;;;;4.10;2.20;;;;;;;16.28;55.39;101591.12;4345881;33;33474;-91
2022/11/11 11:33:07;;;;;;;10.35;4.40;;;;;;;16.35;55.14;101579.31;4346372;32;31945;-91
2022/11/11 11:35:51;;;;;;;2.60;2.40;;;;;;;16.35;54.63;101582.84;4381482;32;33508;-91
2022/11/11 11:38:45;;;;;;;1.27;1.20;;;;;;;16.82;53.19;101584.56;4337218;33;32648;-92
2022/11/11 11:41:40;;;;;;;3.33;2.25;;;;;;;16.37;54.19;101580.13;4361623;32;32397;-92
2022/11/11 11:44:40;;;;;;;3.55;3.08;;;;;;;16.31;55.00;101575.91;4361965;32;32654;-93
2022/11/11 11:47:35;;;;;;;2.15;1.42;;;;;;;16.58;54.37;101581.94;4335195;33;34370;-92
2022/11/11 11:50:51;;;;;;;1.42;1.27;;;;;;;16.67;54.67;101583.38;4363929;32;32882;-91
2022/11/11 11:53:48;;;;;;;3.00;2.72;;;;;;;16.32;55.78;101588.28;4402623;32;33981;-85
2022/11/11 11:56:39;;;;;;;6.10;2.80;;;;;;;16.11;57.44;101587.34;4382668;32;32845;-85
2022/11/11 11:59:36;;;;;;;1.87;1.62;;;;;;;16.22;56.74;101596.72;4383351;32;32614;-85
2022/11/11 12:02:47;;;;;;;1.33;1.23;;;;;;;16.41;56.71;101592.41;4395959;32;33489;-86
2022/11/11 12:05:40;;;;;;;1.60;1.50;;;;;;;16.56;56.46;101586.44;4400482;32;33192;-85
2022/11/11 12:08:30;;;;;;;5.82;1.52;;;;;;;16.74;55.88;101592.87;4382707;32;33213;-85
2022/11/11 12:11:36;;;;;;;6.20;3.35;;;;;;;17.10;54.84;101603.84;4392863;32;33689;-85
2022/11/11 12:14:51;;;;;;;1.90;1.80;;;;;;;16.89;56.69;101602.06;4393364;32;34237;-94
2022/11/11 12:17:51;;;;;;;6.05;2.37;;;;;;;17.01;55.37;101609.56;4373822;32;33493;-93
2022/11/11 12:21:05;;;;;;;2.15;1.98;;;;;;;16.95;56.49;101606.25;4379919;32;33995;-93
2022/11/11 12:24:20;;;;;;;3.73;2.50;;;;;;;17.12;55.59;101596.63;4369738;32;34440;-92
2022/11/11 12:27:55;;;;;;;2.22;1.83;;;;;;;17.09;55.48;101590.53;4347385;32;34026;-92
2022/11/11 12:31:35;;;;;;;3.35;3.05;;;;;;;17.26;53.91;101589.84;4367508;32;32271;-92
2022/11/11 12:34:49;;;;;;;2.33;2.12;;;;;;;17.29;54.34;101581.69;4319369;32;32233;-92
2022/11/11 12:37:38;;;;;;;0.82;0.82;;;;;;;17.54;53.83;101594.84;4381637;32;33070;-85
2022/11/11 12:40:45;;;;;;;3.83;2.53;;;;;;;17.85;52.22;101605.03;4375478;32;34806;-84
2022/11/11 12:43:40;;;;;;;0.93;0.93;;;;;;;17.36;53.80;101599.19;4390827;32;32932;-85
2022/11/11 12:46:45;;;;;;;2.60;1.00;;;;;;;17.57;52.36;101605.41;4382507;32;34370;-84
2022/11/11 12:49:46;;;;;;;0.60;0.60;;;;;;;17.35;52.08;101600.13;4390876;32;33170;-84
2022/11/11 12:53:13;;;;;;;1.35;1.02;;;;;;;16.87;53.83;101599.47;4371966;32;32853;-84
2022/11/11 12:56:29;;;;;;;1.27;1.17;;;;;;;17.35;51.19;101584.09;4379236;32;34073;-84
2022/11/11 13:03:58;;;;;;;1.77;1.35;;;;;;;16.81;53.19;101596.19;4380583;32;34683;-88
2022/11/11 13:07:26;;;;;;;0.52;0.52;;;;;;;17.08;52.15;101611.03;4383648;32;33714;-85
2022/11/11 13:10:35;;;;;;;2.97;1.23;;;;;;;16.67;52.06;101598.50;4379724;32;33082;-83
2022/11/11 13:13:41;;;;;;;1.00;0.90;;;;;;;16.95;51.55;101592.91;4386205;32;33393;-83
2022/11/11 13:16:27;;;;;;;0.60;0.60;;;;;;;16.89;51.31;101589.56;4393359;32;33947;-83
2022/11/11 13:19:28;;;;;;;2.92;1.15;;;;;;;16.88;51.57;101576.31;4377239;32;34815;-83
2022/11/11 13:22:23;;;;;;;0.60;0.60;;;;;;;16.85;53.07;101571.09;4388818;32;33560;-83
2022/11/11 13:25:15;;;;;;;0.55;0.55;;;;;;;16.82;52.27;101568.56;4381602;32;33216;-82
2022/11/11 13:28:19;;;;;;;1.33;1.17;;;;;;;16.89;51.88;101575.38;4396499;32;34311;-83
2022/11/11 13:31:15;;;;;;;2.28;0.50;;;;;;;17.30;51.25;101570.94;4375131;32;34654;-82
2022/11/11 13:34:09;;;;;;;0.60;0.50;;;;;;;17.38;50.86;101570.62;4373446;32;32838;-83
2022/11/11 13:37:03;;;;;;;0.73;0.73;;;;;;;17.33;50.85;101583.31;4393256;32;33348;-84
2022/11/11 13:39:51;;;;;;;2.62;1.15;;;;;;;17.18;51.14;101578.59;4392644;32;32179;-83
2022/11/11 13:42:49;;;;;;;1.17;1.08;;;;;;;16.94;52.21;101581.38;4397345;32;33661;-83
2022/11/11 13:45:41;;;;;;;0.77;0.77;;;;;;;16.78;52.74;101581.16;4394466;32;32697;-83
2022/11/11 13:48:33;;;;;;;15.55;1.20;;;;;;;16.53;54.44;101580.41;4393040;32;32404;-83
2022/11/11 13:54:34;;;;;;;0.60;0.60;;;;;;;16.56;53.96;101554.44;4405501;32;34609;-83
2022/11/11 13:57:28;;;;;;;1.33;1.20;;;;;;;16.34;54.81;101561.59;4395839;32;33666;-83
2022/11/11 14:00:21;;;;;;;1.17;1.10;;;;;;;16.42;54.12;101561.28;4394696;32;32630;-83
2022/11/11 14:03:13;;;;;;;0.80;0.80;;;;;;;16.39;54.24;101563.16;4391172;32;33167;-83
2022/11/11 14:06:15;;;;;;;2.53;1.60;;;;;;;16.31;54.85;101553.72;4396352;32;32925;-83
2022/11/11 14:09:04;;;;;;;2.00;1.73;;;;;;;16.46;54.30;101557.56;4394374;32;33224;-83
2022/11/11 14:12:21;;;;;;;3.08;1.90;;;;;;;16.39;54.14;101556.94;4404974;32;31608;-83
2022/11/11 14:15:42;;;;;;;0.66;0.48;;;;;;;16.42;54.62;101559.47;4374621;32;805491;-83
2022/11/11 14:24:44;;;;;;;7.80;2.47;;;;;;;16.28;54.71;101551.16;4407314;32;34648;-83
2022/11/11 14:27:32;;;;;;;2.22;1.23;;;;;;;16.32;54.68;101552.78;4393543;32;33641;-83
2022/11/11 14:36:45;;;;;;;2.75;2.28;;;;;;;15.80;56.52;101528.16;4402041;32;33731;-83
2022/11/11 14:39:44;;;;;;;0.82;0.77;;;;;;;16.10;55.59;101519.00;4408067;32;33797;-83
2022/11/11 14:42:36;;;;;;;1.73;1.62;;;;;;;15.91;56.54;101527.75;4397245;32;32625;-83
2022/11/11 14:45:43;;;;;;;1.90;1.45;;;;;;;15.54;57.55;101524.66;4394069;32;31911;-83
2022/11/11 14:48:53;;;;;;;1.08;1.08;;;;;;;15.55;57.78;101521.06;4393149;32;33825;-83
2022/11/11 14:51:50;;;;;;;21.87;2.53;;;;;;;15.70;57.01;101524.97;4394174;32;33962;-84
2022/11/11 14:55:12;;;;;;;2.10;1.92;;;;;;;15.72;56.94;101530.25;4388341;32;33601;-83
2022/11/11 14:58:17;;;;;;;7.37;3.33;;;;;;;15.49;57.88;101521.28;4393374;32;32665;-84
2022/11/11 15:01:18;;;;;;;2.08;1.87;;;;;;;15.52;57.86;101522.94;4395454;32;33797;-83
2022/11/11 15:03:58;;;;;;;3.45;2.15;;;;;;;15.47;58.19;101533.75;4381521;32;33337;-84